sensor_id;sensor_type;location;lat;lon;timestamp;temperature;humidity
20670;DHT22;10494;50.868;4.180;2022-10-31T00:02:02;14.10;99.90
20670;DHT22;10494;50.868;4.180;2022-10-31T00:04:28;14.10;99.90
20670;DHT22;10494;50.868;4.180;2022-10-31T00:06:53;14.00;99.90
20670;DHT22;10494;50.868;4.180;2022-10-31T00:09:19;14.10;99.90
20670;DHT22;10494;50.868;4.180;2022-10-31T00:11:44;14.10;99.90
20670;DHT22;10494;50.868;4.180;2022-10-31T00:14:10;13.90;99.90
20670;DHT22;10494;50.868;4.180;2022-10-31T00:16:36;14.00;99.90
20670;DHT22;10494;50.868;4.180;2022-10-31T00:19:05;14.00;99.90
20670;DHT22;10494;50.868;4.180;2022-10-31T00:21:31;13.90;99.90
20670;DHT22;10494;50.868;4.180;2022-10-31T00:23:58;13.80;99.90
20670;DHT22;10494;50.868;4.180;2022-10-31T00:26:24;13.80;99.90
20670;DHT22;10494;50.868;4.180;2022-10-31T00:28:50;13.70;99.90
20670;DHT22;10494;50.868;4.180;2022-10-31T00:31:16;13.60;99.90
20670;DHT22;10494;50.868;4.180;2022-10-31T00:33:42;13.50;99.90
20670;DHT22;10494;50.868;4.180;2022-10-31T00:36:12;13.40;99.90
20670;DHT22;10494;50.868;4.180;2022-10-31T00:38:38;13.30;99.90
20670;DHT22;10494;50.868;4.180;2022-10-31T00:41:04;13.30;99.90
20670;DHT22;10494;50.868;4.180;2022-10-31T00:43:29;13.30;99.90
20670;DHT22;10494;50.868;4.180;2022-10-31T00:45:55;13.30;99.90
20670;DHT22;10494;50.868;4.180;2022-10-31T00:48:20;13.30;99.90
20670;DHT22;10494;50.868;4.180;2022-10-31T00:50:46;13.20;99.90
20670;DHT22;10494;50.868;4.180;2022-10-31T00:53:11;13.10;99.90
20670;DHT22;10494;50.868;4.180;2022-10-31T00:55:37;13.10;99.90
20670;DHT22;10494;50.868;4.180;2022-10-31T00:58:02;13.00;99.90
20670;DHT22;10494;50.868;4.180;2022-10-31T01:00:28;13.00;99.90
20670;DHT22;10494;50.868;4.180;2022-10-31T01:02:53;13.00;99.90
20670;DHT22;10494;50.868;4.180;2022-10-31T01:05:19;12.90;99.90
20670;DHT22;10494;50.868;4.180;2022-10-31T01:07:45;12.80;99.90
20670;DHT22;10494;50.868;4.180;2022-10-31T01:10:11;12.80;99.90
20670;DHT22;10494;50.868;4.180;2022-10-31T01:12:41;12.80;99.90
20670;DHT22;10494;50.868;4.180;2022-10-31T01:15:07;12.70;99.90
20670;DHT22;10494;50.868;4.180;2022-10-31T01:17:33;12.60;99.90
20670;DHT22;10494;50.868;4.180;2022-10-31T01:19:59;12.50;99.90
20670;DHT22;10494;50.868;4.180;2022-10-31T01:22:24;12.20;99.90
20670;DHT22;10494;50.868;4.180;2022-10-31T01:24:50;12.20;99.90
20670;DHT22;10494;50.868;4.180;2022-10-31T01:27:15;12.20;99.90
20670;DHT22;10494;50.868;4.180;2022-10-31T01:29:41;12.10;99.90
20670;DHT22;10494;50.868;4.180;2022-10-31T01:32:06;11.90;99.90
20670;DHT22;10494;50.868;4.180;2022-10-31T01:34:32;11.90;99.90
20670;DHT22;10494;50.868;4.180;2022-10-31T01:36:58;11.90;99.90
20670;DHT22;10494;50.868;4.180;2022-10-31T01:39:23;12.00;99.90
20670;DHT22;10494;50.868;4.180;2022-10-31T01:41:53;12.00;99.90
20670;DHT22;10494;50.868;4.180;2022-10-31T01:52:00;12.10;99.90
20670;DHT22;10494;50.868;4.180;2022-10-31T01:54:32;12.10;99.90
20670;DHT22;10494;50.868;4.180;2022-10-31T01:56:59;12.10;99.90
20670;DHT22;10494;50.868;4.180;2022-10-31T01:59:29;12.10;99.90
20670;DHT22;10494;50.868;4.180;2022-10-31T02:01:55;12.10;99.90
20670;DHT22;10494;50.868;4.180;2022-10-31T02:04:23;12.10;99.90
20670;DHT22;10494;50.868;4.180;2022-10-31T02:06:55;12.10;99.90
20670;DHT22;10494;50.868;4.180;2022-10-31T02:09:22;12.10;99.90
20670;DHT22;10494;50.868;4.180;2022-10-31T02:11:52;12.00;99.90
20670;DHT22;10494;50.868;4.180;2022-10-31T02:14:22;12.00;99.90
20670;DHT22;10494;50.868;4.180;2022-10-31T02:16:47;12.00;99.90
20670;DHT22;10494;50.868;4.180;2022-10-31T02:19:19;11.90;99.90
20670;DHT22;10494;50.868;4.180;2022-10-31T02:22:01;11.90;99.90
20670;DHT22;10494;50.868;4.180;2022-10-31T02:27:48;11.80;99.90
20670;DHT22;10494;50.868;4.180;2022-10-31T02:30:20;11.80;99.90
20670;DHT22;10494;50.868;4.180;2022-10-31T02:36:04;11.80;99.90
20670;DHT22;10494;50.868;4.180;2022-10-31T02:44:22;11.80;99.90
20670;DHT22;10494;50.868;4.180;2022-10-31T02:47:03;11.90;99.90
20670;DHT22;10494;50.868;4.180;2022-10-31T02:51:58;11.80;99.90
20670;DHT22;10494;50.868;4.180;2022-10-31T02:54:26;11.70;99.90
20670;DHT22;10494;50.868;4.180;2022-10-31T02:57:02;11.70;99.90
20670;DHT22;10494;50.868;4.180;2022-10-31T02:59:30;11.70;99.90
20670;DHT22;10494;50.868;4.180;2022-10-31T03:02:16;11.60;99.90
20670;DHT22;10494;50.868;4.180;2022-10-31T03:07:57;11.30;99.90
20670;DHT22;10494;50.868;4.180;2022-10-31T03:16:29;11.50;99.90
20670;DHT22;10494;50.868;4.180;2022-10-31T03:23:56;11.50;99.90
20670;DHT22;10494;50.868;4.180;2022-10-31T03:26:23;11.60;99.90
20670;DHT22;10494;50.868;4.180;2022-10-31T03:29:10;11.50;99.90
20670;DHT22;10494;50.868;4.180;2022-10-31T03:31:49;11.30;99.90
20670;DHT22;10494;50.868;4.180;2022-10-31T03:34:17;11.30;99.90
20670;DHT22;10494;50.868;4.180;2022-10-31T03:36:45;11.30;99.90
20670;DHT22;10494;50.868;4.180;2022-10-31T03:39:14;11.20;99.90
20670;DHT22;10494;50.868;4.180;2022-10-31T03:41:43;11.30;99.90
20670;DHT22;10494;50.868;4.180;2022-10-31T03:44:14;11.20;99.90
20670;DHT22;10494;50.868;4.180;2022-10-31T03:46:42;11.20;99.90
20670;DHT22;10494;50.868;4.180;2022-10-31T03:49:08;11.20;99.90
20670;DHT22;10494;50.868;4.180;2022-10-31T03:56:41;11.00;99.90
20670;DHT22;10494;50.868;4.180;2022-10-31T03:59:15;11.00;99.90
20670;DHT22;10494;50.868;4.180;2022-10-31T04:01:47;10.90;99.90
20670;DHT22;10494;50.868;4.180;2022-10-31T04:04:14;10.90;99.90
20670;DHT22;10494;50.868;4.180;2022-10-31T04:06:42;11.00;99.90
20670;DHT22;10494;50.868;4.180;2022-10-31T04:09:09;10.90;99.90
20670;DHT22;10494;50.868;4.180;2022-10-31T04:11:44;10.90;99.90
20670;DHT22;10494;50.868;4.180;2022-10-31T04:14:11;10.90;99.90
20670;DHT22;10494;50.868;4.180;2022-10-31T04:16:40;10.80;99.90
20670;DHT22;10494;50.868;4.180;2022-10-31T04:19:07;10.80;99.90
20670;DHT22;10494;50.868;4.180;2022-10-31T04:21:32;10.70;99.90
20670;DHT22;10494;50.868;4.180;2022-10-31T04:23:58;10.70;99.90
20670;DHT22;10494;50.868;4.180;2022-10-31T04:26:24;10.70;99.90
20670;DHT22;10494;50.868;4.180;2022-10-31T04:28:50;10.60;99.90
20670;DHT22;10494;50.868;4.180;2022-10-31T04:31:15;10.60;99.90
20670;DHT22;10494;50.868;4.180;2022-10-31T04:33:41;10.50;99.90
20670;DHT22;10494;50.868;4.180;2022-10-31T04:36:07;10.50;99.90
20670;DHT22;10494;50.868;4.180;2022-10-31T04:38:33;10.50;99.90
20670;DHT22;10494;50.868;4.180;2022-10-31T04:40:59;10.40;99.90
20670;DHT22;10494;50.868;4.180;2022-10-31T04:43:24;10.40;99.90
20670;DHT22;10494;50.868;4.180;2022-10-31T04:45:50;10.40;99.90
20670;DHT22;10494;50.868;4.180;2022-10-31T04:48:16;10.40;99.90
20670;DHT22;10494;50.868;4.180;2022-10-31T04:50:41;10.40;99.90
20670;DHT22;10494;50.868;4.180;2022-10-31T04:53:07;10.30;99.90
20670;DHT22;10494;50.868;4.180;2022-10-31T04:55:32;10.20;99.90
20670;DHT22;10494;50.868;4.180;2022-10-31T04:57:58;10.10;99.90
20670;DHT22;10494;50.868;4.180;2022-10-31T05:00:24;10.00;99.90
20670;DHT22;10494;50.868;4.180;2022-10-31T05:02:52;9.90;99.90
20670;DHT22;10494;50.868;4.180;2022-10-31T05:05:20;10.00;99.90
20670;DHT22;10494;50.868;4.180;2022-10-31T05:07:47;9.90;99.90
20670;DHT22;10494;50.868;4.180;2022-10-31T05:10:16;10.00;99.90
20670;DHT22;10494;50.868;4.180;2022-10-31T05:12:46;10.00;99.90
20670;DHT22;10494;50.868;4.180;2022-10-31T05:15:13;10.10;99.90
20670;DHT22;10494;50.868;4.180;2022-10-31T05:17:39;10.10;99.90
20670;DHT22;10494;50.868;4.180;2022-10-31T05:20:04;10.10;99.90
20670;DHT22;10494;50.868;4.180;2022-10-31T05:22:30;10.10;99.90
20670;DHT22;10494;50.868;4.180;2022-10-31T05:24:56;10.20;99.90
20670;DHT22;10494;50.868;4.180;2022-10-31T05:27:21;10.30;99.90
20670;DHT22;10494;50.868;4.180;2022-10-31T05:29:47;10.30;99.90
20670;DHT22;10494;50.868;4.180;2022-10-31T05:32:13;10.40;99.90
20670;DHT22;10494;50.868;4.180;2022-10-31T05:34:38;10.40;99.90
20670;DHT22;10494;50.868;4.180;2022-10-31T05:37:04;10.20;99.90
20670;DHT22;10494;50.868;4.180;2022-10-31T05:39:29;10.20;99.90
20670;DHT22;10494;50.868;4.180;2022-10-31T05:41:55;10.30;99.90
20670;DHT22;10494;50.868;4.180;2022-10-31T05:44:20;10.40;99.90
20670;DHT22;10494;50.868;4.180;2022-10-31T05:46:46;10.50;99.90
20670;DHT22;10494;50.868;4.180;2022-10-31T05:49:12;10.50;99.90
20670;DHT22;10494;50.868;4.180;2022-10-31T05:51:38;10.60;99.90
20670;DHT22;10494;50.868;4.180;2022-10-31T05:54:04;10.70;99.90
20670;DHT22;10494;50.868;4.180;2022-10-31T05:56:29;10.70;99.90
20670;DHT22;10494;50.868;4.180;2022-10-31T05:58:55;10.80;99.90
20670;DHT22;10494;50.868;4.180;2022-10-31T06:01:20;10.80;99.90
20670;DHT22;10494;50.868;4.180;2022-10-31T06:03:46;10.90;99.90
20670;DHT22;10494;50.868;4.180;2022-10-31T06:06:12;11.00;99.90
20670;DHT22;10494;50.868;4.180;2022-10-31T06:08:37;11.00;99.90
20670;DHT22;10494;50.868;4.180;2022-10-31T06:11:03;11.10;99.90
20670;DHT22;10494;50.868;4.180;2022-10-31T06:13:28;11.10;99.90
20670;DHT22;10494;50.868;4.180;2022-10-31T06:15:54;11.20;99.90
20670;DHT22;10494;50.868;4.180;2022-10-31T06:18:19;11.20;99.90
20670;DHT22;10494;50.868;4.180;2022-10-31T06:20:45;11.30;99.90
20670;DHT22;10494;50.868;4.180;2022-10-31T06:23:11;11.30;99.90
20670;DHT22;10494;50.868;4.180;2022-10-31T06:25:36;11.40;99.90
20670;DHT22;10494;50.868;4.180;2022-10-31T06:28:02;11.40;99.90
20670;DHT22;10494;50.868;4.180;2022-10-31T06:30:27;11.50;99.90
20670;DHT22;10494;50.868;4.180;2022-10-31T06:32:53;11.60;99.90
20670;DHT22;10494;50.868;4.180;2022-10-31T06:35:19;11.60;99.90
20670;DHT22;10494;50.868;4.180;2022-10-31T06:37:52;11.60;99.90
20670;DHT22;10494;50.868;4.180;2022-10-31T06:40:18;11.70;99.90
20670;DHT22;10494;50.868;4.180;2022-10-31T06:42:43;11.70;99.90
20670;DHT22;10494;50.868;4.180;2022-10-31T06:45:09;11.80;99.90
20670;DHT22;10494;50.868;4.180;2022-10-31T06:47:35;11.80;99.90
20670;DHT22;10494;50.868;4.180;2022-10-31T06:50:00;11.90;99.90
20670;DHT22;10494;50.868;4.180;2022-10-31T06:52:26;11.90;99.90
20670;DHT22;10494;50.868;4.180;2022-10-31T06:54:51;12.00;99.90
20670;DHT22;10494;50.868;4.180;2022-10-31T06:57:17;12.00;99.90
20670;DHT22;10494;50.868;4.180;2022-10-31T06:59:42;12.10;99.90
20670;DHT22;10494;50.868;4.180;2022-10-31T07:02:11;12.20;99.90
20670;DHT22;10494;50.868;4.180;2022-10-31T07:04:37;12.20;99.90
20670;DHT22;10494;50.868;4.180;2022-10-31T07:07:02;12.10;99.90
20670;DHT22;10494;50.868;4.180;2022-10-31T07:09:28;12.20;99.90
20670;DHT22;10494;50.868;4.180;2022-10-31T07:11:53;12.00;99.90
20670;DHT22;10494;50.868;4.180;2022-10-31T07:14:19;12.00;99.90
20670;DHT22;10494;50.868;4.180;2022-10-31T07:16:51;12.00;99.90
20670;DHT22;10494;50.868;4.180;2022-10-31T07:19:17;12.20;99.90
20670;DHT22;10494;50.868;4.180;2022-10-31T07:21:42;12.30;99.90
20670;DHT22;10494;50.868;4.180;2022-10-31T07:24:08;12.10;99.90
20670;DHT22;10494;50.868;4.180;2022-10-31T07:26:33;12.20;99.90
20670;DHT22;10494;50.868;4.180;2022-10-31T07:28:59;12.30;99.90
20670;DHT22;10494;50.868;4.180;2022-10-31T07:31:25;12.40;99.90
20670;DHT22;10494;50.868;4.180;2022-10-31T07:33:50;12.50;99.90
20670;DHT22;10494;50.868;4.180;2022-10-31T07:36:16;12.60;99.90
20670;DHT22;10494;50.868;4.180;2022-10-31T07:38:42;12.60;99.90
20670;DHT22;10494;50.868;4.180;2022-10-31T07:41:07;12.70;99.90
20670;DHT22;10494;50.868;4.180;2022-10-31T07:43:34;12.80;99.90
20670;DHT22;10494;50.868;4.180;2022-10-31T07:45:59;12.90;99.90
20670;DHT22;10494;50.868;4.180;2022-10-31T07:48:25;12.80;99.90
20670;DHT22;10494;50.868;4.180;2022-10-31T07:50:50;12.70;99.90
20670;DHT22;10494;50.868;4.180;2022-10-31T07:53:16;12.60;99.90
20670;DHT22;10494;50.868;4.180;2022-10-31T07:55:42;12.70;99.90
20670;DHT22;10494;50.868;4.180;2022-10-31T07:58:13;12.70;99.90
20670;DHT22;10494;50.868;4.180;2022-10-31T08:00:41;12.90;99.90
20670;DHT22;10494;50.868;4.180;2022-10-31T08:03:12;12.90;99.90
20670;DHT22;10494;50.868;4.180;2022-10-31T08:05:38;12.80;99.90
20670;DHT22;10494;50.868;4.180;2022-10-31T08:08:05;12.70;99.90
20670;DHT22;10494;50.868;4.180;2022-10-31T08:10:31;12.60;99.90
20670;DHT22;10494;50.868;4.180;2022-10-31T08:12:57;12.50;99.90
20670;DHT22;10494;50.868;4.180;2022-10-31T08:15:23;12.60;99.90
20670;DHT22;10494;50.868;4.180;2022-10-31T08:17:49;12.60;99.90
20670;DHT22;10494;50.868;4.180;2022-10-31T08:20:15;12.90;99.90
20670;DHT22;10494;50.868;4.180;2022-10-31T08:22:40;13.10;99.90
20670;DHT22;10494;50.868;4.180;2022-10-31T08:25:06;13.10;99.90
20670;DHT22;10494;50.868;4.180;2022-10-31T08:27:32;13.10;99.90
20670;DHT22;10494;50.868;4.180;2022-10-31T08:29:57;13.20;99.90
20670;DHT22;10494;50.868;4.180;2022-10-31T08:32:24;13.40;99.90
20670;DHT22;10494;50.868;4.180;2022-10-31T08:34:49;13.50;99.90
20670;DHT22;10494;50.868;4.180;2022-10-31T08:37:15;13.70;99.90
20670;DHT22;10494;50.868;4.180;2022-10-31T08:39:45;13.80;99.90
20670;DHT22;10494;50.868;4.180;2022-10-31T08:42:11;13.90;99.90
20670;DHT22;10494;50.868;4.180;2022-10-31T08:44:37;14.00;99.90
20670;DHT22;10494;50.868;4.180;2022-10-31T08:47:03;14.10;99.90
20670;DHT22;10494;50.868;4.180;2022-10-31T08:49:28;14.20;99.90
20670;DHT22;10494;50.868;4.180;2022-10-31T08:51:54;14.20;99.90
20670;DHT22;10494;50.868;4.180;2022-10-31T08:54:19;14.10;99.90
20670;DHT22;10494;50.868;4.180;2022-10-31T08:56:46;14.10;99.90
20670;DHT22;10494;50.868;4.180;2022-10-31T08:59:11;14.20;99.90
20670;DHT22;10494;50.868;4.180;2022-10-31T09:01:37;14.30;99.90
20670;DHT22;10494;50.868;4.180;2022-10-31T09:04:02;14.40;99.90
20670;DHT22;10494;50.868;4.180;2022-10-31T09:06:28;14.50;99.90
20670;DHT22;10494;50.868;4.180;2022-10-31T09:08:53;14.50;99.90
20670;DHT22;10494;50.868;4.180;2022-10-31T09:11:19;14.50;99.90
20670;DHT22;10494;50.868;4.180;2022-10-31T09:13:44;14.50;99.90
20670;DHT22;10494;50.868;4.180;2022-10-31T09:16:10;14.60;99.90
20670;DHT22;10494;50.868;4.180;2022-10-31T09:18:36;14.50;99.90
20670;DHT22;10494;50.868;4.180;2022-10-31T09:21:01;14.60;99.90
20670;DHT22;10494;50.868;4.180;2022-10-31T09:23:27;14.60;99.90
20670;DHT22;10494;50.868;4.180;2022-10-31T09:25:53;14.70;99.90
20670;DHT22;10494;50.868;4.180;2022-10-31T09:28:22;14.80;99.90
20670;DHT22;10494;50.868;4.180;2022-10-31T09:30:49;14.60;99.90
20670;DHT22;10494;50.868;4.180;2022-10-31T09:33:16;14.40;99.90
20670;DHT22;10494;50.868;4.180;2022-10-31T09:35:42;14.40;99.90
20670;DHT22;10494;50.868;4.180;2022-10-31T09:38:10;14.50;99.90
20670;DHT22;10494;50.868;4.180;2022-10-31T09:40:38;14.70;99.90
20670;DHT22;10494;50.868;4.180;2022-10-31T09:46:06;15.00;99.90
20670;DHT22;10494;50.868;4.180;2022-10-31T09:51:06;15.30;99.90
20670;DHT22;10494;50.868;4.180;2022-10-31T09:53:36;15.30;99.90
20670;DHT22;10494;50.868;4.180;2022-10-31T09:56:07;15.40;99.90
20670;DHT22;10494;50.868;4.180;2022-10-31T09:58:43;15.50;99.90
20670;DHT22;10494;50.868;4.180;2022-10-31T10:04:14;15.40;99.90
20670;DHT22;10494;50.868;4.180;2022-10-31T10:06:45;15.00;99.90
20670;DHT22;10494;50.868;4.180;2022-10-31T10:09:11;14.70;99.90
20670;DHT22;10494;50.868;4.180;2022-10-31T10:11:50;14.80;99.90
20670;DHT22;10494;50.868;4.180;2022-10-31T10:14:31;14.80;99.90
20670;DHT22;10494;50.868;4.180;2022-10-31T10:22:35;15.30;99.90
20670;DHT22;10494;50.868;4.180;2022-10-31T10:25:22;15.70;99.90
20670;DHT22;10494;50.868;4.180;2022-10-31T10:30:42;16.40;99.90
20670;DHT22;10494;50.868;4.180;2022-10-31T10:33:12;16.60;99.90
20670;DHT22;10494;50.868;4.180;2022-10-31T10:35:44;16.50;99.90
20670;DHT22;10494;50.868;4.180;2022-10-31T10:41:01;16.90;99.90
20670;DHT22;10494;50.868;4.180;2022-10-31T10:43:36;17.20;99.90
20670;DHT22;10494;50.868;4.180;2022-10-31T10:51:37;17.20;99.90
20670;DHT22;10494;50.868;4.180;2022-10-31T10:57:19;17.40;99.90
20670;DHT22;10494;50.868;4.180;2022-10-31T10:59:47;17.80;99.90
20670;DHT22;10494;50.868;4.180;2022-10-31T11:02:24;17.90;99.90
20670;DHT22;10494;50.868;4.180;2022-10-31T11:04:52;17.90;99.90
20670;DHT22;10494;50.868;4.180;2022-10-31T11:07:19;18.10;99.90
20670;DHT22;10494;50.868;4.180;2022-10-31T11:09:44;18.20;99.90
20670;DHT22;10494;50.868;4.180;2022-10-31T11:12:23;17.90;99.90
20670;DHT22;10494;50.868;4.180;2022-10-31T11:14:57;18.10;99.90
20670;DHT22;10494;50.868;4.180;2022-10-31T11:17:36;18.20;99.90
20670;DHT22;10494;50.868;4.180;2022-10-31T11:22:37;18.40;99.90
20670;DHT22;10494;50.868;4.180;2022-10-31T11:25:22;18.30;99.90
20670;DHT22;10494;50.868;4.180;2022-10-31T11:28:07;18.20;99.90
20670;DHT22;10494;50.868;4.180;2022-10-31T11:31:07;18.10;99.90
20670;DHT22;10494;50.868;4.180;2022-10-31T11:33:49;18.20;99.90
20670;DHT22;10494;50.868;4.180;2022-10-31T11:36:23;18.40;99.90
20670;DHT22;10494;50.868;4.180;2022-10-31T11:38:51;18.60;99.90
20670;DHT22;10494;50.868;4.180;2022-10-31T11:41:30;18.90;99.90
20670;DHT22;10494;50.868;4.180;2022-10-31T11:46:38;19.20;99.90
20670;DHT22;10494;50.868;4.180;2022-10-31T11:49:05;19.40;99.90
20670;DHT22;10494;50.868;4.180;2022-10-31T11:51:36;19.50;99.90
20670;DHT22;10494;50.868;4.180;2022-10-31T11:54:04;19.50;99.90
20670;DHT22;10494;50.868;4.180;2022-10-31T11:56:40;19.40;99.90
20670;DHT22;10494;50.868;4.180;2022-10-31T11:59:21;19.60;99.90
20670;DHT22;10494;50.868;4.180;2022-10-31T12:01:51;19.80;99.90
20670;DHT22;10494;50.868;4.180;2022-10-31T12:04:17;19.90;99.90
20670;DHT22;10494;50.868;4.180;2022-10-31T12:06:45;19.80;99.90
20670;DHT22;10494;50.868;4.180;2022-10-31T12:09:30;19.80;99.90
20670;DHT22;10494;50.868;4.180;2022-10-31T12:12:06;20.10;99.90
20670;DHT22;10494;50.868;4.180;2022-10-31T12:17:19;19.80;99.90
20670;DHT22;10494;50.868;4.180;2022-10-31T12:22:42;20.30;99.90
20670;DHT22;10494;50.868;4.180;2022-10-31T12:30:43;20.40;99.90
20670;DHT22;10494;50.868;4.180;2022-10-31T13:00:24;20.70;99.90
20670;DHT22;10494;50.868;4.180;2022-10-31T13:05:37;20.80;99.90
20670;DHT22;10494;50.868;4.180;2022-10-31T13:08:06;20.90;99.90
20670;DHT22;10494;50.868;4.180;2022-10-31T13:16:24;21.00;99.90
20670;DHT22;10494;50.868;4.180;2022-10-31T13:18:51;20.90;99.90
20670;DHT22;10494;50.868;4.180;2022-10-31T13:21:26;21.00;99.90
20670;DHT22;10494;50.868;4.180;2022-10-31T13:23:55;21.00;99.90
20670;DHT22;10494;50.868;4.180;2022-10-31T13:26:26;21.10;99.90
20670;DHT22;10494;50.868;4.180;2022-10-31T13:31:26;21.10;99.90
20670;DHT22;10494;50.868;4.180;2022-10-31T13:33:56;21.10;99.90
20670;DHT22;10494;50.868;4.180;2022-10-31T13:42:16;21.20;99.90
20670;DHT22;10494;50.868;4.180;2022-10-31T13:44:44;21.00;99.90
20670;DHT22;10494;50.868;4.180;2022-10-31T13:47:23;21.00;99.90
20670;DHT22;10494;50.868;4.180;2022-10-31T13:49:49;21.10;99.90
20670;DHT22;10494;50.868;4.180;2022-10-31T13:52:22;21.20;99.90
20670;DHT22;10494;50.868;4.180;2022-10-31T13:54:51;21.10;99.90
20670;DHT22;10494;50.868;4.180;2022-10-31T13:57:32;21.10;99.90
20670;DHT22;10494;50.868;4.180;2022-10-31T14:00:01;21.10;99.90
20670;DHT22;10494;50.868;4.180;2022-10-31T14:02:35;21.00;99.90
20670;DHT22;10494;50.868;4.180;2022-10-31T14:05:17;20.90;99.90
20670;DHT22;10494;50.868;4.180;2022-10-31T14:07:45;20.80;99.90
20670;DHT22;10494;50.868;4.180;2022-10-31T14:12:50;20.90;99.90
20670;DHT22;10494;50.868;4.180;2022-10-31T14:15:26;20.80;99.90
20670;DHT22;10494;50.868;4.180;2022-10-31T14:17:58;20.80;99.90
20670;DHT22;10494;50.868;4.180;2022-10-31T14:20:36;20.70;99.90
20670;DHT22;10494;50.868;4.180;2022-10-31T14:28:50;20.40;99.90
20670;DHT22;10494;50.868;4.180;2022-10-31T14:34:19;20.40;99.90
20670;DHT22;10494;50.868;4.180;2022-10-31T14:45:51;20.50;99.90
20670;DHT22;10494;50.868;4.180;2022-10-31T14:50:52;20.30;99.90
20670;DHT22;10494;50.868;4.180;2022-10-31T14:53:33;20.20;99.90
20670;DHT22;10494;50.868;4.180;2022-10-31T14:55:59;20.20;99.90
20670;DHT22;10494;50.868;4.180;2022-10-31T14:58:45;20.20;99.90
20670;DHT22;10494;50.868;4.180;2022-10-31T15:01:32;20.20;99.90
20670;DHT22;10494;50.868;4.180;2022-10-31T15:04:07;20.10;99.90
20670;DHT22;10494;50.868;4.180;2022-10-31T15:06:42;20.10;99.90
20670;DHT22;10494;50.868;4.180;2022-10-31T15:09:33;20.10;99.90
20670;DHT22;10494;50.868;4.180;2022-10-31T15:12:01;20.20;99.90
20670;DHT22;10494;50.868;4.180;2022-10-31T15:14:40;20.10;99.90
20670;DHT22;10494;50.868;4.180;2022-10-31T15:17:05;20.00;99.90
20670;DHT22;10494;50.868;4.180;2022-10-31T15:19:32;20.00;99.90
20670;DHT22;10494;50.868;4.180;2022-10-31T15:22:00;20.00;99.90
20670;DHT22;10494;50.868;4.180;2022-10-31T15:24:33;19.80;99.90
20670;DHT22;10494;50.868;4.180;2022-10-31T15:26:59;19.70;99.90
20670;DHT22;10494;50.868;4.180;2022-10-31T15:29:26;19.70;99.90
20670;DHT22;10494;50.868;4.180;2022-10-31T15:31:53;19.70;99.90
20670;DHT22;10494;50.868;4.180;2022-10-31T15:34:43;19.60;99.90
20670;DHT22;10494;50.868;4.180;2022-10-31T15:37:12;19.60;99.90
20670;DHT22;10494;50.868;4.180;2022-10-31T15:39:39;19.40;99.90
20670;DHT22;10494;50.868;4.180;2022-10-31T15:42:13;19.30;99.90
20670;DHT22;10494;50.868;4.180;2022-10-31T15:44:41;19.20;99.90
20670;DHT22;10494;50.868;4.180;2022-10-31T15:47:20;19.20;99.90
20670;DHT22;10494;50.868;4.180;2022-10-31T15:49:50;19.20;99.90
20670;DHT22;10494;50.868;4.180;2022-10-31T15:52:38;19.10;99.90
20670;DHT22;10494;50.868;4.180;2022-10-31T15:57:45;18.90;99.90
20670;DHT22;10494;50.868;4.180;2022-10-31T16:00:41;18.80;99.90
20670;DHT22;10494;50.868;4.180;2022-10-31T16:05:44;18.50;99.90
20670;DHT22;10494;50.868;4.180;2022-10-31T16:10:55;18.50;99.90
20670;DHT22;10494;50.868;4.180;2022-10-31T16:13:27;18.30;99.90
20670;DHT22;10494;50.868;4.180;2022-10-31T16:16:03;18.40;99.90
20670;DHT22;10494;50.868;4.180;2022-10-31T16:18:36;18.30;99.90
20670;DHT22;10494;50.868;4.180;2022-10-31T16:21:03;18.20;99.90
20670;DHT22;10494;50.868;4.180;2022-10-31T16:23:29;18.00;99.90
20670;DHT22;10494;50.868;4.180;2022-10-31T16:25:54;18.00;99.90
20670;DHT22;10494;50.868;4.180;2022-10-31T16:28:22;18.00;99.90
20670;DHT22;10494;50.868;4.180;2022-10-31T16:30:51;18.00;99.90
20670;DHT22;10494;50.868;4.180;2022-10-31T16:33:28;17.90;99.90
20670;DHT22;10494;50.868;4.180;2022-10-31T16:35:57;17.90;99.90
20670;DHT22;10494;50.868;4.180;2022-10-31T16:38:23;17.70;99.90
20670;DHT22;10494;50.868;4.180;2022-10-31T16:40:50;17.60;99.90
20670;DHT22;10494;50.868;4.180;2022-10-31T16:43:18;17.60;99.90
20670;DHT22;10494;50.868;4.180;2022-10-31T16:45:47;17.60;99.90
20670;DHT22;10494;50.868;4.180;2022-10-31T16:48:15;17.60;99.90
20670;DHT22;10494;50.868;4.180;2022-10-31T16:50:43;17.50;99.90
20670;DHT22;10494;50.868;4.180;2022-10-31T16:53:09;17.50;99.90
20670;DHT22;10494;50.868;4.180;2022-10-31T16:55:45;17.40;99.90
20670;DHT22;10494;50.868;4.180;2022-10-31T16:58:21;17.40;99.90
20670;DHT22;10494;50.868;4.180;2022-10-31T17:00:49;17.30;99.90
20670;DHT22;10494;50.868;4.180;2022-10-31T17:03:15;17.30;99.90
20670;DHT22;10494;50.868;4.180;2022-10-31T17:05:41;17.20;99.90
20670;DHT22;10494;50.868;4.180;2022-10-31T17:08:06;17.20;99.90
20670;DHT22;10494;50.868;4.180;2022-10-31T17:10:32;17.10;99.90
20670;DHT22;10494;50.868;4.180;2022-10-31T17:12:58;16.80;99.90
20670;DHT22;10494;50.868;4.180;2022-10-31T17:15:27;16.80;99.90
20670;DHT22;10494;50.868;4.180;2022-10-31T17:17:53;16.80;99.90
20670;DHT22;10494;50.868;4.180;2022-10-31T17:20:25;16.70;99.90
20670;DHT22;10494;50.868;4.180;2022-10-31T17:22:51;16.80;99.90
20670;DHT22;10494;50.868;4.180;2022-10-31T17:25:25;16.90;99.90
20670;DHT22;10494;50.868;4.180;2022-10-31T17:27:51;16.80;99.90
20670;DHT22;10494;50.868;4.180;2022-10-31T17:30:18;16.90;99.90
20670;DHT22;10494;50.868;4.180;2022-10-31T17:32:45;16.80;99.90
20670;DHT22;10494;50.868;4.180;2022-10-31T17:35:12;16.80;99.90
20670;DHT22;10494;50.868;4.180;2022-10-31T17:37:38;16.80;99.90
20670;DHT22;10494;50.868;4.180;2022-10-31T17:40:05;16.60;99.90
20670;DHT22;10494;50.868;4.180;2022-10-31T17:42:31;16.60;99.90
20670;DHT22;10494;50.868;4.180;2022-10-31T17:44:56;16.60;99.90
20670;DHT22;10494;50.868;4.180;2022-10-31T17:47:22;16.60;99.90
20670;DHT22;10494;50.868;4.180;2022-10-31T17:49:48;16.60;99.90
20670;DHT22;10494;50.868;4.180;2022-10-31T17:52:13;16.50;99.90
20670;DHT22;10494;50.868;4.180;2022-10-31T17:54:39;16.40;99.90
20670;DHT22;10494;50.868;4.180;2022-10-31T17:57:04;16.50;99.90
20670;DHT22;10494;50.868;4.180;2022-10-31T17:59:30;16.60;99.90
20670;DHT22;10494;50.868;4.180;2022-10-31T18:01:56;16.60;99.90
20670;DHT22;10494;50.868;4.180;2022-10-31T18:04:22;16.50;99.90
20670;DHT22;10494;50.868;4.180;2022-10-31T18:06:48;16.60;99.90
20670;DHT22;10494;50.868;4.180;2022-10-31T18:09:16;16.50;99.90
20670;DHT22;10494;50.868;4.180;2022-10-31T18:11:42;16.50;99.90
20670;DHT22;10494;50.868;4.180;2022-10-31T18:14:09;16.60;99.90
20670;DHT22;10494;50.868;4.180;2022-10-31T18:16:35;16.50;99.90
20670;DHT22;10494;50.868;4.180;2022-10-31T18:19:01;16.50;99.90
20670;DHT22;10494;50.868;4.180;2022-10-31T18:21:29;16.60;99.90